Time;durP1;ratioP1;P1;durP2;ratioP2;P2;SDS_P1;SDS_P2;PMS_P1;PMS_P2;Temp;Humidity;BMP_temperature;BMP_pressure;BME280_temperature;BME280_humidity;BME280_pressure;Samples;Min_cycle;Max_cycle;Signal;HPM_P1;HPM_P2
2022/09/09 00:02:02;;;;;;;6.72;2.30;;;;;;;12.65;100.00;100618.00;5077185;28;20389;-85
2022/09/09 00:04:40;;;;;;;6.10;2.30;;;;;;;12.66;100.00;100616.13;5076861;28;20024;-86
2022/09/09 00:07:45;;;;;;;4.93;2.25;;;;;;;12.60;100.00;100612.47;5077162;28;20408;-86
2022/09/09 00:10:29;;;;;;;5.27;2.10;;;;;;;12.58;100.00;100607.25;5076020;28;20139;-86
2022/09/09 00:13:15;;;;;;;5.57;1.90;;;;;;;12.59;100.00;100610.78;5076387;28;20020;-86
2022/09/09 00:16:20;;;;;;;4.38;2.45;;;;;;;12.55;100.00;100607.72;5076906;28;20031;-85
2022/09/09 00:19:05;;;;;;;12.00;2.33;;;;;;;12.59;100.00;100606.19;5076208;28;20040;-85
2022/09/09 00:21:37;;;;;;;3.50;2.28;;;;;;;12.58;100.00;100603.72;5076661;28;20139;-85
2022/09/09 00:24:20;;;;;;;5.13;1.73;;;;;;;12.48;100.00;100598.00;5077321;28;20067;-86
2022/09/09 00:26:52;;;;;;;6.95;2.03;;;;;;;12.46;100.00;100601.78;5095198;28;20028;-86
2022/09/09 00:29:38;;;;;;;6.40;1.80;;;;;;;12.45;100.00;100610.19;5076723;28;20031;-86
2022/09/09 00:32:16;;;;;;;3.47;1.70;;;;;;;12.46;100.00;100611.84;5076011;28;20527;-86
2022/09/09 00:34:54;;;;;;;4.15;1.90;;;;;;;12.44;100.00;100597.63;5076307;28;20085;-86
2022/09/09 00:37:22;;;;;;;4.23;1.60;;;;;;;12.43;100.00;100607.69;5094177;28;20047;-86
2022/09/09 00:39:56;;;;;;;3.92;2.10;;;;;;;12.44;100.00;100605.81;5075931;28;20112;-85
2022/09/09 00:42:26;;;;;;;5.85;2.35;;;;;;;12.39;100.00;100597.53;5076517;28;20359;-86
2022/09/09 00:44:55;;;;;;;5.35;1.92;;;;;;;12.35;100.00;100588.97;5076463;28;20092;-86
2022/09/09 00:47:39;;;;;;;6.80;1.95;;;;;;;12.37;100.00;100584.16;5075652;28;20035;-87
2022/09/09 00:50:21;;;;;;;4.20;1.83;;;;;;;12.37;100.00;100586.03;5075797;28;20477;-86
2022/09/09 00:53:14;;;;;;;3.80;1.83;;;;;;;12.34;100.00;100579.19;5076042;28;20039;-86
2022/09/09 00:55:54;;;;;;;6.82;1.80;;;;;;;12.34;100.00;100592.78;5075938;28;20418;-86
2022/09/09 00:58:19;;;;;;;3.25;1.80;;;;;;;12.30;100.00;100594.31;5076336;28;20060;-86
2022/09/09 01:00:51;;;;;;;3.30;1.60;;;;;;;12.29;100.00;100585.31;5058965;28;20063;-86
2022/09/09 01:03:24;;;;;;;3.85;1.63;;;;;;;12.28;100.00;100589.09;5075326;28;20036;-86
2022/09/09 01:06:04;;;;;;;3.40;1.70;;;;;;;12.27;100.00;100586.63;5075866;28;20035;-86
2022/09/09 01:08:50;;;;;;;6.10;1.70;;;;;;;12.25;100.00;100592.28;5076723;28;20036;-85
2022/09/09 01:11:55;;;;;;;7.95;1.73;;;;;;;12.22;100.00;100581.88;5076376;28;20081;-86
2022/09/09 01:14:39;;;;;;;4.05;1.75;;;;;;;12.23;100.00;100588.97;5093948;28;20028;-85
2022/09/09 01:17:14;;;;;;;5.78;1.90;;;;;;;12.25;100.00;100580.56;5075241;28;20051;-86
2022/09/09 01:19:43;;;;;;;3.10;1.80;;;;;;;12.25;100.00;100584.13;5075765;28;20131;-86
2022/09/09 01:22:14;;;;;;;6.67;1.90;;;;;;;12.26;100.00;100572.16;5075585;28;20032;-85
2022/09/09 01:25:03;;;;;;;6.07;2.25;;;;;;;12.26;100.00;100582.22;5075416;28;20028;-86
2022/09/09 01:27:31;;;;;;;5.03;2.28;;;;;;;12.25;100.00;100573.25;5075354;28;20031;-85
2022/09/09 01:29:59;;;;;;;6.07;2.25;;;;;;;12.22;100.00;100573.72;5075314;28;20032;-86
2022/09/09 01:32:50;;;;;;;6.20;2.47;;;;;;;12.22;100.00;100567.44;5076640;28;20399;-86
2022/09/09 01:35:35;;;;;;;4.07;2.20;;;;;;;12.23;100.00;100563.66;5075460;28;20024;-86
2022/09/09 01:38:00;;;;;;;6.95;2.20;;;;;;;12.25;100.00;100570.53;5075755;28;20032;-86
2022/09/09 01:40:26;;;;;;;5.60;2.67;;;;;;;12.26;100.00;100568.63;5076318;28;20035;-86
2022/09/09 01:42:53;;;;;;;5.23;2.43;;;;;;;12.25;100.00;100561.53;5075562;28;20478;-85
2022/09/09 01:45:23;;;;;;;4.40;2.75;;;;;;;12.24;100.00;100559.88;5075103;28;20028;-85
2022/09/09 01:47:50;;;;;;;6.65;2.67;;;;;;;12.22;100.00;100557.41;5075380;28;20382;-85
2022/09/09 01:50:16;;;;;;;7.10;3.50;;;;;;;12.23;100.00;100558.22;5093785;28;20032;-86
2022/09/09 01:52:44;;;;;;;8.30;2.95;;;;;;;12.24;100.00;100554.44;5075301;28;20032;-85
2022/09/09 01:55:17;;;;;;;7.63;3.00;;;;;;;12.23;100.00;100547.34;5075564;28;20031;-86
2022/09/09 01:57:57;;;;;;;7.40;2.75;;;;;;;12.20;100.00;100551.34;5076213;28;20028;-86
2022/09/09 02:00:26;;;;;;;11.90;3.40;;;;;;;12.20;100.00;100547.81;5075310;28;20036;-86
2022/09/09 02:03:05;;;;;;;7.37;3.10;;;;;;;12.17;100.00;100548.28;5075501;28;20457;-86
2022/09/09 02:05:43;;;;;;;7.97;3.03;;;;;;;12.20;100.00;100545.09;5075009;28;20085;-86
2022/09/09 02:08:13;;;;;;;12.70;3.60;;;;;;;12.19;100.00;100544.25;5077157;28;20040;-85
2022/09/09 02:11:13;;;;;;;12.00;3.22;;;;;;;12.16;100.00;100536.56;5079181;28;20038;-85
2022/09/09 02:13:40;;;;;;;10.20;3.17;;;;;;;12.16;100.00;100547.44;5054781;28;20035;-86
2022/09/09 02:16:21;;;;;;;8.20;3.50;;;;;;;12.16;100.00;100542.00;5078843;28;20465;-85
2022/09/09 02:19:17;;;;;;;10.68;3.75;;;;;;;12.15;100.00;100540.34;5097083;28;20028;-86
2022/09/09 02:21:53;;;;;;;6.57;3.30;;;;;;;12.15;100.00;100539.50;5079388;28;20562;-86
2022/09/09 02:24:18;;;;;;;7.30;3.47;;;;;;;12.14;100.00;100546.84;5079739;28;20419;-86
2022/09/09 02:26:47;;;;;;;9.47;3.63;;;;;;;12.16;100.00;100547.44;5078366;28;20016;-85
2022/09/09 02:29:23;;;;;;;8.60;3.80;;;;;;;12.17;100.00;100538.22;5078350;28;20053;-86
2022/09/09 02:31:51;;;;;;;11.07;3.53;;;;;;;12.19;100.00;100537.97;5078710;28;20028;-86
2022/09/09 02:34:23;;;;;;;9.00;3.70;;;;;;;12.19;100.00;100546.13;5078249;28;20054;-86
2022/09/09 02:36:51;;;;;;;8.50;3.92;;;;;;;12.15;100.00;100529.47;5078560;28;20127;-85
2022/09/09 02:39:16;;;;;;;15.03;4.27;;;;;;;12.16;100.00;100536.56;5078460;28;20499;-85
2022/09/09 02:41:44;;;;;;;10.20;4.07;;;;;;;12.17;100.00;100531.97;5078414;28;20032;-86
2022/09/09 02:44:21;;;;;;;10.27;4.05;;;;;;;12.16;100.00;100527.56;5061342;28;20028;-86
2022/09/09 02:46:58;;;;;;;10.40;4.07;;;;;;;12.16;100.00;100533.84;5078943;28;20039;-86
2022/09/09 02:49:45;;;;;;;11.10;4.10;;;;;;;12.14;100.00;100524.28;5078292;28;20032;-86
2022/09/09 02:52:18;;;;;;;10.52;4.78;;;;;;;12.15;100.00;100534.06;5096773;28;20027;-86
2022/09/09 02:54:44;;;;;;;12.95;4.57;;;;;;;12.11;100.00;100526.38;5077890;28;20039;-86
2022/09/09 02:57:25;;;;;;;8.95;4.10;;;;;;;12.13;100.00;100537.03;5061803;28;20038;-86
2022/09/09 02:59:53;;;;;;;13.83;4.17;;;;;;;12.14;100.00;100543.31;5077943;28;20488;-86
2022/09/09 03:02:18;;;;;;;12.07;4.20;;;;;;;12.16;100.00;100541.16;5095995;28;20036;-86
2022/09/09 03:04:50;;;;;;;11.33;4.07;;;;;;;12.17;100.00;100545.56;5062028;28;20362;-85
2022/09/09 03:07:18;;;;;;;8.60;3.80;;;;;;;12.14;100.00;100548.75;5079015;28;20052;-86
2022/09/09 03:09:44;;;;;;;9.73;3.47;;;;;;;12.14;100.00;100535.16;5061562;28;20032;-86
2022/09/09 03:12:10;;;;;;;8.85;3.83;;;;;;;12.14;100.00;100538.69;5077897;28;20020;-86
2022/09/09 03:14:41;;;;;;;12.60;3.87;;;;;;;12.18;100.00;100548.03;5095716;28;20378;-86
2022/09/09 03:17:09;;;;;;;10.35;3.72;;;;;;;12.20;100.00;100548.63;5095734;28;20047;-86
2022/09/09 03:19:36;;;;;;;11.60;4.10;;;;;;;12.21;100.00;100547.56;5077556;28;20036;-86
2022/09/09 03:22:01;;;;;;;13.70;3.67;;;;;;;12.22;100.00;100556.56;5078382;28;20485;-86
2022/09/09 03:24:29;;;;;;;9.30;3.67;;;;;;;12.25;100.00;100550.66;5077655;28;20066;-86
2022/09/09 03:26:55;;;;;;;11.05;3.65;;;;;;;12.26;100.00;100555.84;5060978;28;20028;-86
2022/09/09 03:29:21;;;;;;;14.88;3.83;;;;;;;12.26;100.00;100558.56;5060745;28;20034;-86
2022/09/09 03:31:52;;;;;;;9.27;3.40;;;;;;;12.25;100.00;100558.81;5077791;28;20046;-86
2022/09/09 03:34:17;;;;;;;11.75;3.67;;;;;;;12.22;100.00;100554.69;5077129;28;20131;-85
2022/09/09 03:36:43;;;;;;;9.53;3.50;;;;;;;12.23;100.00;100547.34;5095219;28;20515;-86
2022/09/09 03:39:11;;;;;;;12.05;3.50;;;;;;;12.24;100.00;100557.16;5077620;28;20037;-86
2022/09/09 03:41:37;;;;;;;7.93;3.28;;;;;;;12.25;100.00;100551.50;5095741;28;20066;-86
2022/09/09 03:44:05;;;;;;;10.17;3.13;;;;;;;12.24;100.00;100549.00;5095248;28;20385;-87
2022/09/09 03:46:31;;;;;;;17.35;3.50;;;;;;;12.24;100.00;100538.13;5095131;28;20036;-87
2022/09/09 03:48:57;;;;;;;9.27;3.35;;;;;;;12.25;100.00;100543.34;5060310;28;20024;-86
2022/09/09 03:51:22;;;;;;;9.10;3.03;;;;;;;12.27;100.00;100548.53;5078036;28;20036;-86
2022/09/09 03:53:48;;;;;;;11.33;3.23;;;;;;;12.27;100.00;100548.53;5077076;28;20384;-86
2022/09/09 03:56:16;;;;;;;11.82;3.97;;;;;;;12.24;100.00;100546.28;5076808;28;20474;-86
2022/09/09 03:58:41;;;;;;;11.40;3.20;;;;;;;12.26;100.00;100542.25;5060624;28;20404;-86
2022/09/09 04:01:16;;;;;;;10.90;3.20;;;;;;;12.28;100.00;100539.28;5094866;28;20035;-86
2022/09/09 04:03:42;;;;;;;10.55;3.40;;;;;;;12.28;100.00;100540.13;5060903;28;20032;-86
2022/09/09 04:06:10;;;;;;;12.53;3.40;;;;;;;12.28;100.00;100540.13;5076543;28;20020;-86
2022/09/09 04:08:38;;;;;;;7.45;3.20;;;;;;;12.29;100.00;100539.06;5077006;28;20047;-86
2022/09/09 04:11:06;;;;;;;10.55;3.65;;;;;;;12.31;100.00;100535.28;5094617;28;20103;-86
2022/09/09 04:13:32;;;;;;;11.40;3.90;;;;;;;12.31;100.00;100533.38;5076937;28;20039;-86
2022/09/09 04:16:00;;;;;;;9.85;3.38;;;;;;;12.31;100.00;100527.94;5076330;28;20020;-86
2022/09/09 04:18:28;;;;;;;8.13;3.33;;;;;;;12.35;100.00;100536.47;5076697;28;20129;-86
2022/09/09 04:20:56;;;;;;;9.20;3.65;;;;;;;12.41;100.00;100532.81;5059989;28;20044;-86
2022/09/09 04:23:28;;;;;;;16.27;3.70;;;;;;;12.44;100.00;100527.72;5076540;28;20041;-86
2022/09/09 04:25:55;;;;;;;12.35;3.90;;;;;;;12.50;100.00;100530.56;5076716;28;20110;-86
2022/09/09 04:28:23;;;;;;;11.70;3.35;;;;;;;12.50;100.00;100528.66;5076083;28;20036;-86
2022/09/09 04:30:59;;;;;;;16.83;3.87;;;;;;;12.49;100.00;100524.31;5075792;28;20028;-86
2022/09/09 04:33:27;;;;;;;12.88;3.83;;;;;;;12.48;100.00;100524.53;5076416;28;20115;-86
2022/09/09 04:35:54;;;;;;;15.18;3.80;;;;;;;12.45;100.00;100521.22;5094357;28;20040;-86
2022/09/09 04:38:22;;;;;;;10.32;3.63;;;;;;;12.46;100.00;100525.59;5075807;28;20027;-86
2022/09/09 04:40:49;;;;;;;12.40;2.83;;;;;;;12.49;100.00;100523.47;5075973;28;20127;-86
2022/09/09 04:43:15;;;;;;;15.63;3.80;;;;;;;12.48;100.00;100519.91;5076128;28;20032;-86
2022/09/09 04:45:47;;;;;;;18.80;3.78;;;;;;;12.50;100.00;100528.66;5075875;28;20366;-86
2022/09/09 04:48:18;;;;;;;9.20;3.72;;;;;;;12.55;100.00;100523.34;5059560;28;20046;-86
2022/09/09 04:50:47;;;;;;;10.77;3.60;;;;;;;12.56;100.00;100519.59;5059646;28;20036;-86
2022/09/09 04:53:12;;;;;;;22.90;4.57;;;;;;;12.58;100.00;100511.19;5093546;28;20366;-86
2022/09/09 04:55:43;;;;;;;15.73;3.40;;;;;;;12.62;100.00;100510.47;5059066;28;20039;-86
2022/09/09 04:58:21;;;;;;;16.20;4.40;;;;;;;12.63;100.00;100512.09;5076226;28;20082;-86
2022/09/09 05:00:47;;;;;;;13.50;3.40;;;;;;;12.65;100.00;100506.41;5060267;28;20031;-86
2022/09/09 05:03:15;;;;;;;12.38;3.70;;;;;;;12.63;100.00;100503.94;5093843;28;20028;-86
2022/09/09 05:05:42;;;;;;;11.07;3.50;;;;;;;12.64;100.00;100521.13;5075892;28;20085;-86
2022/09/09 05:08:11;;;;;;;13.45;3.53;;;;;;;12.65;100.00;100511.84;5076698;28;20038;-86
2022/09/09 05:10:42;;;;;;;13.32;3.40;;;;;;;12.65;100.00;100509.13;5074553;28;20046;-86
2022/09/09 05:13:14;;;;;;;18.90;4.07;;;;;;;12.68;100.00;100518.72;5094219;28;20031;-86
2022/09/09 05:15:44;;;;;;;11.73;3.53;;;;;;;12.72;100.00;100512.56;5059078;28;20024;-87
2022/09/09 05:18:19;;;;;;;13.73;3.60;;;;;;;12.69;100.00;100507.59;5071866;28;20052;-86
2022/09/09 05:20:52;;;;;;;18.33;3.65;;;;;;;12.70;100.00;100519.34;5056595;28;20052;-86
2022/09/09 05:23:22;;;;;;;11.15;3.05;;;;;;;12.71;100.00;100510.94;5073330;28;20486;-86
2022/09/09 05:25:58;;;;;;;11.55;3.30;;;;;;;12.73;100.00;100505.25;5072311;28;20031;-84
2022/09/09 05:28:27;;;;;;;12.68;3.70;;;;;;;12.81;100.00;100507.59;5072320;28;20474;-84
2022/09/09 05:31:13;;;;;;;12.60;3.53;;;;;;;12.79;100.00;100499.66;5072480;28;20462;-85
2022/09/09 05:33:40;;;;;;;14.07;3.65;;;;;;;12.88;100.00;100499.31;5072163;28;20123;-84
2022/09/09 05:36:17;;;;;;;8.40;3.28;;;;;;;12.94;100.00;100504.63;5071897;28;20028;-84
2022/09/09 05:38:44;;;;;;;13.77;3.78;;;;;;;13.01;100.00;100512.66;5072162;28;20115;-84
2022/09/09 05:41:11;;;;;;;10.73;3.42;;;;;;;13.04;100.00;100506.75;5071969;28;20039;-82
2022/09/09 05:43:37;;;;;;;17.30;4.30;;;;;;;13.05;100.00;100511.13;5075825;28;20052;-82
2022/09/09 05:46:10;;;;;;;10.93;4.13;;;;;;;13.12;100.00;100519.16;5077290;28;20046;-82
2022/09/09 05:48:41;;;;;;;13.07;3.47;;;;;;;13.15;100.00;100518.66;5075687;28;20481;-82
2022/09/09 05:51:11;;;;;;;10.52;2.83;;;;;;;13.22;100.00;100524.00;5077357;28;20458;-81
2022/09/09 05:53:37;;;;;;;16.40;3.40;;;;;;;13.24;100.00;100527.28;5076797;28;20433;-82
2022/09/09 05:56:14;;;;;;;13.23;2.83;;;;;;;13.25;100.00;100527.03;5076044;28;20028;-83
2022/09/09 05:58:39;;;;;;;14.30;3.75;;;;;;;13.29;100.00;100521.97;5076315;28;20028;-81
2022/09/09 06:01:10;;;;;;;26.15;4.32;;;;;;;13.37;100.00;100534.41;5076141;28;20052;-80
2022/09/09 06:03:37;;;;;;;10.30;3.50;;;;;;;13.42;100.00;100531.75;5076661;28;20071;-81
2022/09/09 06:06:05;;;;;;;15.30;4.00;;;;;;;13.42;100.00;100515.41;5077065;28;20036;-81
2022/09/09 06:08:32;;;;;;;14.48;3.90;;;;;;;13.48;100.00;100526.19;5075594;28;20029;-82
2022/09/09 06:11:02;;;;;;;16.85;3.42;;;;;;;13.45;100.00;100523.94;5075193;28;20064;-81
2022/09/09 06:13:29;;;;;;;10.63;3.70;;;;;;;13.54;100.00;100539.91;5076921;28;20039;-80
2022/09/09 06:15:54;;;;;;;15.75;3.55;;;;;;;13.63;100.00;100522.09;5075081;28;20465;-80
2022/09/09 06:18:20;;;;;;;12.20;3.67;;;;;;;13.68;100.00;100528.50;5058044;28;20068;-81
2022/09/09 06:21:00;;;;;;;17.53;3.87;;;;;;;13.72;100.00;100526.09;5058582;28;20044;-81
2022/09/09 06:23:27;;;;;;;12.30;3.28;;;;;;;13.76;100.00;100532.72;5075728;28;20031;-81
2022/09/09 06:26:14;;;;;;;10.48;3.53;;;;;;;13.75;100.00;100533.78;5076538;28;20029;-81
2022/09/09 06:28:40;;;;;;;12.90;3.30;;;;;;;13.68;100.00;100528.50;5075781;28;20032;-81
2022/09/09 06:31:07;;;;;;;15.00;3.80;;;;;;;13.68;100.00;100525.75;5075418;28;20469;-81
2022/09/09 06:33:41;;;;;;;14.75;3.25;;;;;;;13.69;100.00;100529.31;5076229;28;20029;-80
2022/09/09 06:36:14;;;;;;;15.63;3.10;;;;;;;13.74;100.00;100525.84;5075990;28;20078;-80
2022/09/09 06:38:41;;;;;;;12.52;3.25;;;;;;;13.74;100.00;100528.56;5075003;28;20025;-80
2022/09/09 06:41:08;;;;;;;13.45;3.50;;;;;;;13.75;100.00;100525.59;5075318;28;20035;-81
2022/09/09 06:43:34;;;;;;;10.50;3.10;;;;;;;13.74;100.00;100537.56;5075884;28;20029;-81
2022/09/09 06:46:10;;;;;;;11.88;3.35;;;;;;;13.76;100.00;100524.53;5074677;28;20094;-81
2022/09/09 06:48:36;;;;;;;9.98;2.80;;;;;;;13.85;100.00;100527.69;5074720;28;20032;-81
2022/09/09 06:51:07;;;;;;;15.77;3.83;;;;;;;13.86;100.00;100529.31;5057577;28;20076;-80
2022/09/09 06:53:34;;;;;;;12.68;3.60;;;;;;;13.88;100.00;100518.19;5075311;28;20493;-80
2022/09/09 06:56:18;;;;;;;15.67;3.87;;;;;;;13.95;100.00;100527.03;5074336;28;20028;-80
2022/09/09 06:58:45;;;;;;;15.68;3.33;;;;;;;13.99;100.00;100526.28;5075696;28;20028;-80
2022/09/09 07:01:13;;;;;;;11.70;3.40;;;;;;;14.01;100.00;100529.63;5075914;28;20071;-83
2022/09/09 07:03:40;;;;;;;12.95;3.42;;;;;;;14.02;100.00;100528.56;5076293;28;20036;-83
2022/09/09 07:06:07;;;;;;;11.60;3.33;;;;;;;14.07;100.00;100529.69;5074475;28;20136;-82
2022/09/09 07:08:40;;;;;;;15.87;3.60;;;;;;;14.13;100.00;100521.38;5058320;28;20036;-83
2022/09/09 07:11:07;;;;;;;15.57;4.10;;;;;;;14.30;100.00;100526.00;5075610;28;20082;-83
2022/09/09 07:13:34;;;;;;;15.80;3.13;;;;;;;14.41;100.00;100533.28;5057416;28;20032;-83
2022/09/09 07:16:08;;;;;;;14.30;3.13;;;;;;;14.51;100.00;100527.97;5074260;28;20051;-83
2022/09/09 07:18:34;;;;;;;9.90;2.60;;;;;;;14.65;100.00;100533.13;5092718;28;20097;-83
2022/09/09 07:21:01;;;;;;;13.60;2.83;;;;;;;14.74;100.00;100532.44;5044499;28;20100;-83
2022/09/09 07:23:30;;;;;;;8.30;2.47;;;;;;;14.87;100.00;100512.13;5077649;28;20051;-83
2022/09/09 07:25:57;;;;;;;9.77;2.75;;;;;;;14.92;100.00;100522.31;5095391;28;20024;-83
2022/09/09 07:28:30;;;;;;;9.60;2.55;;;;;;;14.88;100.00;100516.53;5077827;28;20036;-83
2022/09/09 07:30:58;;;;;;;13.85;2.80;;;;;;;14.94;100.00;100513.84;5077246;28;20040;-83
2022/09/09 07:33:26;;;;;;;10.90;2.67;;;;;;;14.97;100.00;100525.13;5095304;28;20035;-83
2022/09/09 07:35:54;;;;;;;11.10;2.50;;;;;;;15.03;100.00;100523.28;5077177;28;20035;-84
2022/09/09 07:38:21;;;;;;;14.68;2.60;;;;;;;15.13;100.00;100526.13;5061879;28;20036;-83
2022/09/09 07:40:47;;;;;;;8.27;2.20;;;;;;;15.15;100.00;100534.09;5044908;28;20036;-83
2022/09/09 07:43:12;;;;;;;11.77;2.30;;;;;;;15.14;100.00;100524.22;5077338;28;20072;-85
2022/09/09 07:45:38;;;;;;;10.65;2.70;;;;;;;15.25;100.00;100535.03;5077665;28;20389;-83
2022/09/09 07:48:04;;;;;;;14.17;2.70;;;;;;;15.33;100.00;100524.75;5060361;28;20393;-83
2022/09/09 07:50:29;;;;;;;12.18;3.03;;;;;;;15.35;100.00;100508.91;5095021;28;20028;-83
2022/09/09 07:52:57;;;;;;;11.50;3.00;;;;;;;15.41;100.00;100516.91;5059998;28;20036;-83
2022/09/09 07:55:26;;;;;;;8.67;2.57;;;;;;;15.60;100.00;100514.69;5077016;28;20352;-83
2022/09/09 07:57:53;;;;;;;11.15;2.20;;;;;;;15.72;100.00;100525.47;5095117;28;20099;-83
2022/09/09 08:00:21;;;;;;;10.68;2.60;;;;;;;15.76;100.00;100520.28;5077783;28;20484;-83
2022/09/09 08:02:49;;;;;;;10.10;2.65;;;;;;;15.90;100.00;100518.81;5075792;28;20051;-83
2022/09/09 08:05:16;;;;;;;12.52;2.50;;;;;;;16.02;100.00;100517.81;5059299;28;20036;-83
2022/09/09 08:07:45;;;;;;;12.93;2.70;;;;;;;15.98;100.00;100528.47;5061240;28;20417;-83
2022/09/09 08:10:11;;;;;;;11.30;2.20;;;;;;;15.93;100.00;100518.31;5076692;28;20035;-83
2022/09/09 08:12:38;;;;;;;12.30;2.67;;;;;;;15.99;100.00;100519.19;5060436;28;20032;-83
2022/09/09 08:15:05;;;;;;;11.43;2.08;;;;;;;16.12;100.00;100523.38;5076507;28;20024;-83
2022/09/09 08:17:31;;;;;;;12.00;2.10;;;;;;;16.17;98.93;100519.88;5075715;28;20493;-83
2022/09/09 08:19:56;;;;;;;6.97;1.97;;;;;;;16.17;97.16;100520.72;5059592;28;20166;-83
2022/09/09 08:22:26;;;;;;;9.90;2.20;;;;;;;16.22;99.17;100528.94;5077285;28;20028;-83
2022/09/09 08:24:51;;;;;;;9.50;1.87;;;;;;;16.31;97.21;100510.13;5076604;28;20052;-84
2022/09/09 08:27:19;;;;;;;9.32;1.88;;;;;;;16.35;98.00;100511.25;5076091;28;20063;-85
2022/09/09 08:29:45;;;;;;;8.68;2.00;;;;;;;16.44;96.02;100517.06;5075929;28;20032;-83
2022/09/09 08:32:10;;;;;;;7.13;2.03;;;;;;;16.38;94.69;100523.59;5075831;28;20388;-83
2022/09/09 08:34:36;;;;;;;10.13;1.93;;;;;;;16.30;96.15;100519.44;5076245;28;20101;-83
2022/09/09 08:37:04;;;;;;;5.27;1.73;;;;;;;16.37;96.27;100522.78;5075922;28;20298;-83
2022/09/09 08:39:29;;;;;;;5.78;1.63;;;;;;;16.30;96.40;100531.22;5059792;28;20113;-83
2022/09/09 08:42:26;;;;;;;7.13;1.83;;;;;;;16.15;95.67;100533.84;5094295;28;20445;-83
2022/09/09 08:45:14;;;;;;;7.60;1.52;;;;;;;16.06;96.18;100541.69;5094399;28;20078;-83
2022/09/09 08:48:08;;;;;;;6.68;2.10;;;;;;;16.08;96.15;100533.22;5094263;28;20028;-83
2022/09/09 08:50:40;;;;;;;6.37;1.70;;;;;;;16.28;97.08;100547.09;5076474;28;20036;-83
2022/09/09 08:53:16;;;;;;;8.50;2.10;;;;;;;16.35;94.92;100540.56;5094131;28;20028;-83
2022/09/09 08:55:59;;;;;;;9.52;2.20;;;;;;;16.54;94.06;100535.50;5093519;28;20501;-83
2022/09/09 08:58:33;;;;;;;7.82;1.52;;;;;;;16.70;93.16;100537.25;5076249;28;20032;-83
2022/09/09 09:01:08;;;;;;;11.40;2.70;;;;;;;16.74;92.79;100543.88;5076422;28;20035;-83
2022/09/09 09:04:06;;;;;;;11.07;2.00;;;;;;;16.74;92.36;100541.13;5076721;28;20093;-83
2022/09/09 09:06:38;;;;;;;7.07;1.90;;;;;;;16.72;89.16;100553.44;5075392;28;20043;-83
2022/09/09 09:09:45;;;;;;;6.95;2.38;;;;;;;16.63;92.35;100551.16;5094391;28;20028;-83
2022/09/09 09:12:23;;;;;;;10.50;2.20;;;;;;;16.84;91.44;100556.78;5093327;28;20367;-83
2022/09/09 09:14:49;;;;;;;12.63;2.90;;;;;;;16.82;89.78;100562.53;5075608;28;20115;-83
2022/09/09 09:17:23;;;;;;;9.23;2.17;;;;;;;16.85;91.45;100563.91;5074890;28;20139;-83
2022/09/09 09:19:49;;;;;;;10.10;2.10;;;;;;;16.80;89.46;100552.91;5075564;28;20028;-83
2022/09/09 09:22:45;;;;;;;5.00;1.98;;;;;;;16.58;94.27;100569.47;5075328;28;20085;-83
2022/09/09 09:25:40;;;;;;;8.97;1.93;;;;;;;16.27;94.56;100570.06;5093378;28;20027;-83
2022/09/09 09:28:24;;;;;;;7.88;2.08;;;;;;;16.33;93.86;100576.41;5090908;28;20502;-83
2022/09/09 09:31:01;;;;;;;8.00;2.05;;;;;;;16.47;93.98;100566.66;5093840;28;20031;-83
2022/09/09 09:33:49;;;;;;;5.80;1.77;;;;;;;16.75;92.15;100563.84;5075376;28;20484;-83
2022/09/09 09:36:18;;;;;;;9.50;2.05;;;;;;;16.98;92.25;100565.41;5075903;28;20114;-82
2022/09/09 09:38:55;;;;;;;9.00;1.73;;;;;;;16.94;90.75;100567.84;5093576;28;20508;-83
2022/09/09 09:41:42;;;;;;;7.00;1.98;;;;;;;16.64;95.83;100552.81;5075125;28;20115;-85
2022/09/09 09:44:39;;;;;;;11.18;2.20;;;;;;;15.82;100.00;100562.22;5093309;28;20473;-84
2022/09/09 09:47:20;;;;;;;8.70;2.47;;;;;;;15.57;100.00;100561.66;5075653;28;20027;-84
2022/09/09 09:50:00;;;;;;;10.15;2.20;;;;;;;15.30;100.00;100563.53;5076074;28;20365;-84
2022/09/09 09:52:28;;;;;;;9.77;2.57;;;;;;;15.23;100.00;100558.22;5093307;28;20020;-84
2022/09/09 09:54:59;;;;;;;12.60;2.28;;;;;;;15.18;100.00;100553.53;5075973;28;20040;-84
2022/09/09 09:57:29;;;;;;;14.13;2.95;;;;;;;15.05;100.00;100553.91;5075502;28;20028;-85
2022/09/09 10:00:20;;;;;;;11.45;2.65;;;;;;;14.95;100.00;100570.97;5074785;28;20028;-86
2022/09/09 10:02:47;;;;;;;13.82;3.13;;;;;;;14.99;100.00;100560.38;5074964;28;20032;-85
2022/09/09 10:05:22;;;;;;;10.97;2.67;;;;;;;14.97;100.00;100546.97;5074267;28;20036;-85
2022/09/09 10:08:10;;;;;;;8.57;2.80;;;;;;;14.90;100.00;100569.00;5075201;28;20027;-86
2022/09/09 10:10:50;;;;;;;11.50;3.10;;;;;;;14.96;100.00;100569.91;5074530;28;20058;-85
2022/09/09 10:13:28;;;;;;;9.98;2.45;;;;;;;14.96;100.00;100558.97;5092413;28;20040;-85
2022/09/09 10:16:13;;;;;;;13.30;3.25;;;;;;;15.00;100.00;100570.19;5075242;28;20117;-85
2022/09/09 10:18:57;;;;;;;8.87;2.80;;;;;;;15.03;100.00;100575.19;5070876;28;20055;-85
2022/09/09 10:21:41;;;;;;;11.77;3.03;;;;;;;14.97;100.00;100573.44;5071690;28;20079;-84
2022/09/09 10:24:12;;;;;;;17.40;3.22;;;;;;;14.91;100.00;100592.50;5071740;28;20090;-84
2022/09/09 10:27:08;;;;;;;9.52;3.22;;;;;;;14.84;100.00;100578.19;5071565;28;20033;-84
2022/09/09 10:29:59;;;;;;;9.00;3.08;;;;;;;14.76;100.00;100575.06;5074802;28;20035;-84
2022/09/09 10:33:02;;;;;;;15.40;3.13;;;;;;;14.72;100.00;100589.22;5074940;28;20048;-84
2022/09/09 10:35:33;;;;;;;16.45;3.83;;;;;;;14.84;100.00;100572.72;5074724;28;20040;-84
2022/09/09 10:38:39;;;;;;;10.68;3.00;;;;;;;14.77;100.00;100584.91;5075930;28;20025;-84
2022/09/09 10:41:16;;;;;;;14.32;3.60;;;;;;;14.78;100.00;100573.75;5074677;28;20029;-84
2022/09/09 10:44:06;;;;;;;14.02;3.60;;;;;;;14.98;100.00;100578.66;5074891;28;20123;-84
2022/09/09 10:46:40;;;;;;;10.10;3.07;;;;;;;15.03;100.00;100575.19;5076290;28;20107;-84
2022/09/09 10:49:37;;;;;;;12.73;3.20;;;;;;;15.11;100.00;100576.66;5075402;28;20029;-84
2022/09/09 10:52:24;;;;;;;8.70;2.88;;;;;;;15.25;100.00;100576.03;5075340;28;20409;-84
2022/09/09 10:54:59;;;;;;;8.65;3.20;;;;;;;15.39;100.00;100578.38;5074692;28;20127;-84
2022/09/09 10:57:42;;;;;;;12.60;3.20;;;;;;;15.38;100.00;100579.47;5074680;28;20440;-84
2022/09/09 11:00:24;;;;;;;12.87;3.97;;;;;;;15.49;100.00;100575.78;5075969;28;20039;-84
2022/09/09 11:03:06;;;;;;;9.10;3.15;;;;;;;15.51;100.00;100587.28;5074748;28;20022;-84
2022/09/09 11:05:56;;;;;;;7.82;2.78;;;;;;;15.40;100.00;100574.59;5074892;28;20033;-84
2022/09/09 11:08:28;;;;;;;5.90;3.10;;;;;;;15.43;100.00;100571.34;5074303;28;20381;-84
2022/09/09 11:11:16;;;;;;;8.82;3.35;;;;;;;15.51;100.00;100581.81;5076028;28;20040;-83
2022/09/09 11:13:51;;;;;;;9.37;3.27;;;;;;;15.60;100.00;100576.72;5074496;28;20032;-84
2022/09/09 11:16:24;;;;;;;7.72;2.88;;;;;;;15.67;100.00;100574.63;5074317;28;20450;-84
2022/09/09 11:18:55;;;;;;;10.65;3.00;;;;;;;15.67;100.00;100585.56;5092202;28;20059;-83
2022/09/09 11:22:00;;;;;;;8.95;3.20;;;;;;;15.60;100.00;100576.72;5077763;28;20024;-84
2022/09/09 11:24:54;;;;;;;10.68;3.40;;;;;;;15.59;100.00;100577.81;4961632;28;20045;-84
2022/09/09 11:27:39;;;;;;;6.90;2.50;;;;;;;15.38;100.00;100572.09;5063701;28;20064;-84
2022/09/09 11:30:30;;;;;;;6.10;2.70;;;;;;;15.17;100.00;100571.00;5095779;28;20141;-84
2022/09/09 11:33:04;;;;;;;7.43;2.70;;;;;;;15.16;100.00;100574.81;5077745;28;20039;-83
2022/09/09 11:35:39;;;;;;;7.38;2.70;;;;;;;15.09;100.00;100571.44;5077346;28;20489;-83
2022/09/09 11:38:39;;;;;;;7.80;3.00;;;;;;;15.08;100.00;100569.78;5077408;28;20024;-84
2022/09/09 11:41:07;;;;;;;7.83;3.00;;;;;;;15.22;100.00;100571.06;5076715;28;20043;-84
2022/09/09 11:43:48;;;;;;;6.70;2.67;;;;;;;15.27;100.00;100568.41;5076885;28;20032;-84
2022/09/09 11:46:17;;;;;;;7.25;2.42;;;;;;;15.31;100.00;100567.88;5077612;28;20430;-84